Time;durP1;ratioP1;P1;durP2;ratioP2;P2;SDS_P1;SDS_P2;PMS_P1;PMS_P2;Temp;Humidity;BMP_temperature;BMP_pressure;BME280_temperature;BME280_humidity;BME280_pressure;Samples;Min_cycle;Max_cycle;Signal;HPM_P1;HPM_P2
2023/04/19 00:01:36;;;;;;;9.83;6.07;;;8.80;99.90;;;;;;4759070;30;20050;-82
2023/04/19 00:04:02;;;;;;;8.67;5.23;;;8.80;99.90;;;;;;4774444;30;20438;-82
2023/04/19 00:06:29;;;;;;;9.93;5.77;;;8.80;99.90;;;;;;4758899;30;20557;-81
2023/04/19 00:08:56;;;;;;;8.00;5.63;;;8.70;99.90;;;;;;4759088;30;20062;-82
2023/04/19 00:11:22;;;;;;;11.03;5.13;;;8.70;99.90;;;;;;4773642;30;20316;-82
2023/04/19 00:13:48;;;;;;;10.23;6.20;;;8.70;99.90;;;;;;4758667;30;20301;-82
2023/04/19 00:16:15;;;;;;;7.67;5.13;;;8.70;99.90;;;;;;4773561;30;20297;-81
2023/04/19 00:18:41;;;;;;;8.43;5.27;;;8.70;99.90;;;;;;4773197;30;20059;-81
2023/04/19 00:21:07;;;;;;;8.47;5.30;;;8.70;99.90;;;;;;4788149;30;20711;-81
2023/04/19 00:23:33;;;;;;;7.30;4.97;;;8.60;99.90;;;;;;4773524;30;20372;-81
2023/04/19 00:26:03;;;;;;;8.87;5.30;;;8.60;99.90;;;;;;4773096;30;20138;-82
2023/04/19 00:28:29;;;;;;;8.93;5.47;;;8.60;99.90;;;;;;4773586;30;20296;-81
2023/04/19 00:30:55;;;;;;;10.03;5.47;;;8.60;99.90;;;;;;4773953;30;20300;-81
2023/04/19 00:33:21;;;;;;;8.70;5.30;;;8.50;99.90;;;;;;4759193;30;20300;-81
2023/04/19 00:35:47;;;;;;;8.27;5.60;;;8.60;99.90;;;;;;4758443;30;20304;-81
2023/04/19 00:38:13;;;;;;;8.93;5.97;;;8.60;99.90;;;;;;4772879;30;20066;-82
2023/04/19 00:40:38;;;;;;;9.17;5.90;;;8.50;99.90;;;;;;4789755;30;20047;-82
2023/04/19 00:43:04;;;;;;;10.23;5.67;;;8.50;99.90;;;;;;4758423;30;20142;-81
2023/04/19 00:45:32;;;;;;;9.30;5.97;;;8.40;99.90;;;;;;4759031;30;20201;-81
2023/04/19 00:47:59;;;;;;;8.00;5.30;;;8.50;99.90;;;;;;4758970;30;20127;-82
2023/04/19 00:50:25;;;;;;;9.20;5.40;;;8.50;99.90;;;;;;4758245;30;20380;-81
2023/04/19 00:52:52;;;;;;;8.70;5.67;;;8.50;99.90;;;;;;4772681;29;20313;-84
2023/04/19 00:55:18;;;;;;;9.33;5.57;;;8.50;99.90;;;;;;4757901;30;20299;-81
2023/04/19 00:57:45;;;;;;;10.83;6.20;;;8.50;99.90;;;;;;4758367;30;20289;-81
2023/04/19 01:00:11;;;;;;;9.53;5.67;;;8.50;99.90;;;;;;4758127;30;20062;-81
2023/04/19 01:02:37;;;;;;;8.23;5.57;;;8.40;99.90;;;;;;4772793;30;20766;-81
2023/04/19 01:05:03;;;;;;;7.97;5.50;;;8.40;99.90;;;;;;4772998;30;20354;-82
2023/04/19 01:07:29;;;;;;;9.60;5.77;;;8.40;99.90;;;;;;4758824;30;20104;-81
2023/04/19 01:09:55;;;;;;;11.73;5.87;;;8.40;99.90;;;;;;4788525;30;20293;-81
2023/04/19 01:12:21;;;;;;;10.97;6.70;;;8.40;99.90;;;;;;4773314;30;20055;-81
2023/04/19 01:14:47;;;;;;;9.70;6.20;;;8.40;99.90;;;;;;4758265;30;20454;-81
2023/04/19 01:17:13;;;;;;;10.83;5.60;;;8.40;99.90;;;;;;4758622;30;20376;-81
2023/04/19 01:19:39;;;;;;;7.67;5.63;;;8.40;99.90;;;;;;4772641;30;20400;-81
2023/04/19 01:22:05;;;;;;;9.90;6.13;;;8.30;99.90;;;;;;4758282;30;20077;-81
2023/04/19 01:24:32;;;;;;;10.33;5.73;;;8.30;99.90;;;;;;4772571;30;20090;-81
2023/04/19 01:26:58;;;;;;;11.20;6.73;;;8.30;99.90;;;;;;4772144;30;20308;-82
2023/04/19 01:29:24;;;;;;;9.33;6.03;;;8.30;99.90;;;;;;4772739;30;20297;-81
2023/04/19 01:31:52;;;;;;;9.80;5.57;;;8.30;99.90;;;;;;4757581;30;20047;-81
2023/04/19 01:34:23;;;;;;;10.00;6.60;;;8.30;99.90;;;;;;4743805;30;20441;-82
2023/04/19 01:36:49;;;;;;;9.67;5.90;;;8.30;99.90;;;;;;4772476;30;20329;-81
2023/04/19 01:39:15;;;;;;;11.43;6.00;;;8.30;99.90;;;;;;4772215;30;20339;-81
2023/04/19 01:41:41;;;;;;;10.43;6.20;;;8.30;99.90;;;;;;4772713;30;20094;-81
2023/04/19 01:44:06;;;;;;;9.77;6.20;;;8.30;99.90;;;;;;4757912;30;20333;-81
2023/04/19 01:46:32;;;;;;;11.70;6.23;;;8.20;99.90;;;;;;4757611;30;20408;-81
2023/04/19 01:48:58;;;;;;;13.23;6.63;;;8.30;99.90;;;;;;4772151;30;20051;-82
2023/04/19 01:51:24;;;;;;;10.67;7.40;;;8.30;99.90;;;;;;4743105;30;20059;-81
2023/04/19 01:53:52;;;;;;;9.73;6.80;;;8.30;99.90;;;;;;4758026;30;20225;-82
2023/04/19 01:56:18;;;;;;;11.90;6.70;;;8.20;99.90;;;;;;4757899;30;20104;-81
2023/04/19 01:58:44;;;;;;;12.23;7.82;;;8.20;99.90;;;;;;4771943;30;20300;-82
2023/04/19 02:01:13;;;;;;;14.53;7.60;;;8.20;99.90;;;;;;4772208;30;20043;-82
2023/04/19 02:03:39;;;;;;;11.77;7.00;;;8.30;99.90;;;;;;4743902;30;20059;-82
2023/04/19 02:06:05;;;;;;;15.55;7.85;;;8.30;99.90;;;;;;4744678;30;20303;-82
2023/04/19 02:08:31;;;;;;;12.93;8.17;;;8.30;99.90;;;;;;4776484;30;20146;-81
2023/04/19 02:10:56;;;;;;;11.53;7.70;;;8.30;99.90;;;;;;4776436;30;20101;-81
2023/04/19 02:13:22;;;;;;;10.70;7.70;;;8.30;99.90;;;;;;4760828;30;20526;-81
2023/04/19 02:15:48;;;;;;;12.13;8.07;;;8.30;99.90;;;;;;4775882;30;20055;-82
2023/04/19 02:18:13;;;;;;;11.70;8.17;;;8.30;99.90;;;;;;4775612;30;20059;-82
2023/04/19 02:20:39;;;;;;;14.20;8.20;;;8.30;99.90;;;;;;4760868;30;20130;-81
2023/04/19 02:23:05;;;;;;;15.53;9.20;;;8.30;99.90;;;;;;4760714;30;20047;-81
2023/04/19 02:25:31;;;;;;;11.07;7.83;;;8.30;99.90;;;;;;4760937;30;20120;-81
2023/04/19 02:27:57;;;;;;;12.00;8.00;;;8.30;99.90;;;;;;4760443;30;20058;-82
2023/04/19 02:30:22;;;;;;;13.00;8.17;;;8.30;99.90;;;;;;4775174;30;20051;-82
2023/04/19 02:32:48;;;;;;;13.57;8.43;;;8.30;99.90;;;;;;4791164;30;20071;-81
2023/04/19 02:35:15;;;;;;;12.48;8.90;;;8.30;99.90;;;;;;4761214;30;20116;-82
2023/04/19 02:37:41;;;;;;;13.00;8.02;;;8.20;99.90;;;;;;4774969;30;20481;-81
2023/04/19 02:40:08;;;;;;;14.60;8.93;;;8.10;99.90;;;;;;4760661;30;20119;-81
2023/04/19 02:42:34;;;;;;;13.37;8.50;;;8.20;99.90;;;;;;4775405;30;20055;-81
2023/04/19 02:44:59;;;;;;;12.20;7.83;;;8.10;99.90;;;;;;4791042;30;20380;-81
2023/04/19 02:47:25;;;;;;;12.93;8.37;;;8.10;99.90;;;;;;4760058;30;20058;-81
2023/04/19 02:49:51;;;;;;;12.87;8.47;;;8.10;99.90;;;;;;4760147;30;20078;-82
2023/04/19 02:52:16;;;;;;;12.23;8.00;;;8.10;99.90;;;;;;4760048;30;20082;-81
2023/04/19 02:54:42;;;;;;;13.97;8.40;;;8.10;99.90;;;;;;4775498;30;20073;-81
2023/04/19 02:57:08;;;;;;;11.23;8.07;;;8.10;99.90;;;;;;4775076;30;20055;-82
2023/04/19 02:59:34;;;;;;;12.73;7.57;;;8.00;99.90;;;;;;4745379;30;20373;-81
2023/04/19 03:01:59;;;;;;;11.83;7.90;;;8.00;99.90;;;;;;4760153;30;20139;-81
2023/04/19 03:04:25;;;;;;;12.30;8.30;;;8.00;99.90;;;;;;4774848;30;20048;-82
2023/04/19 03:06:52;;;;;;;15.90;8.55;;;7.90;99.90;;;;;;4760139;30;20138;-81
2023/04/19 03:09:17;;;;;;;13.00;8.02;;;7.90;99.90;;;;;;4774665;30;20063;-81
2023/04/19 03:11:43;;;;;;;12.40;7.03;;;7.90;99.90;;;;;;4759870;30;20123;-81
2023/04/19 03:14:09;;;;;;;11.23;7.47;;;7.80;99.90;;;;;;4759876;30;20047;-81
2023/04/19 03:16:36;;;;;;;13.67;8.10;;;7.80;99.90;;;;;;4773908;30;20082;-81
2023/04/19 03:19:02;;;;;;;11.50;7.15;;;7.80;99.90;;;;;;4774766;30;20137;-81
2023/04/19 03:21:28;;;;;;;10.73;7.50;;;7.70;99.90;;;;;;4775162;30;20150;-81
2023/04/19 03:23:54;;;;;;;12.57;7.30;;;7.70;99.90;;;;;;4759368;30;20059;-81
2023/04/19 03:26:20;;;;;;;10.90;7.03;;;7.70;99.90;;;;;;4774473;30;20057;-81
2023/04/19 03:28:47;;;;;;;11.30;7.17;;;7.70;99.90;;;;;;4774409;30;20055;-81
2023/04/19 03:31:13;;;;;;;9.77;6.63;;;7.70;99.90;;;;;;4774055;30;20052;-81
2023/04/19 03:33:39;;;;;;;10.65;7.13;;;7.60;99.90;;;;;;4775083;30;20519;-82
2023/04/19 03:36:05;;;;;;;12.55;6.72;;;7.60;99.90;;;;;;4759593;30;20404;-82
2023/04/19 03:38:31;;;;;;;11.50;6.20;;;7.60;99.90;;;;;;4773998;30;20063;-81
2023/04/19 03:40:57;;;;;;;12.07;6.77;;;7.50;99.90;;;;;;4774219;30;20185;-81
2023/04/19 03:43:23;;;;;;;10.63;6.63;;;7.50;99.90;;;;;;4774297;30;20112;-81
2023/04/19 03:45:49;;;;;;;9.70;6.43;;;7.40;99.90;;;;;;4774392;30;20090;-81
2023/04/19 03:48:15;;;;;;;9.75;6.25;;;7.40;99.90;;;;;;4774791;30;20063;-82
2023/04/19 03:50:41;;;;;;;9.40;6.10;;;7.40;99.90;;;;;;4773894;30;20407;-81
2023/04/19 03:53:06;;;;;;;8.77;5.60;;;7.40;99.90;;;;;;4773758;30;20430;-81
2023/04/19 03:55:32;;;;;;;8.40;5.67;;;7.40;99.90;;;;;;4774215;30;20462;-81
2023/04/19 03:57:58;;;;;;;9.57;5.90;;;7.40;99.90;;;;;;4759188;30;20338;-81
2023/04/19 04:00:25;;;;;;;8.53;5.30;;;7.40;99.90;;;;;;4744366;30;20058;-81
2023/04/19 04:02:50;;;;;;;10.43;5.90;;;7.30;99.90;;;;;;4759144;30;20059;-81
2023/04/19 04:05:16;;;;;;;10.07;5.77;;;7.30;99.90;;;;;;4759774;30;20066;-82
2023/04/19 04:07:42;;;;;;;10.63;5.90;;;7.20;99.90;;;;;;4773798;30;20128;-81
2023/04/19 04:10:08;;;;;;;10.50;6.03;;;7.20;99.90;;;;;;4773691;30;20055;-81
2023/04/19 04:12:34;;;;;;;10.95;6.55;;;7.10;99.90;;;;;;4788654;30;20205;-82
2023/04/19 04:14:59;;;;;;;9.10;5.83;;;7.10;99.90;;;;;;4773612;30;20149;-81
2023/04/19 04:17:25;;;;;;;10.17;5.83;;;7.10;99.90;;;;;;4773507;30;20055;-82
2023/04/19 04:19:51;;;;;;;9.73;5.40;;;7.10;99.90;;;;;;4773573;30;20095;-82
2023/04/19 04:22:16;;;;;;;9.43;5.63;;;7.10;99.90;;;;;;4789615;30;20079;-82
2023/04/19 04:24:43;;;;;;;8.33;5.73;;;7.00;99.90;;;;;;4773490;30;20434;-81
2023/04/19 04:27:09;;;;;;;13.85;6.10;;;7.00;99.90;;;;;;4759345;30;20062;-82
2023/04/19 04:29:36;;;;;;;9.13;5.50;;;7.00;99.90;;;;;;4773298;30;20069;-82
2023/04/19 04:32:09;;;;;;;9.15;5.28;;;7.00;99.90;;;;;;4758581;30;20052;-82
2023/04/19 04:34:36;;;;;;;10.32;5.95;;;7.00;99.90;;;;;;4743992;30;20062;-82
2023/04/19 04:37:02;;;;;;;10.05;6.05;;;7.00;99.90;;;;;;4772933;30;20047;-81
2023/04/19 04:39:29;;;;;;;9.02;5.30;;;7.00;99.90;;;;;;4773556;30;20055;-82
2023/04/19 04:41:56;;;;;;;8.57;5.13;;;7.00;99.90;;;;;;4758428;30;20069;-82
2023/04/19 04:44:22;;;;;;;9.02;5.38;;;7.10;99.90;;;;;;4773885;30;20117;-82
2023/04/19 04:46:48;;;;;;;9.93;5.32;;;7.10;99.90;;;;;;4773125;30;20086;-81
2023/04/19 04:49:14;;;;;;;10.17;5.67;;;7.10;99.90;;;;;;4758341;30;20074;-83
2023/04/19 04:51:40;;;;;;;8.30;4.67;;;7.00;99.90;;;;;;4758711;30;20058;-82
2023/04/19 04:54:05;;;;;;;9.33;4.83;;;7.00;99.90;;;;;;4758197;30;20059;-81
2023/04/19 04:56:31;;;;;;;8.73;4.83;;;7.00;99.90;;;;;;4772974;30;20051;-82
2023/04/19 04:58:58;;;;;;;11.30;5.23;;;7.00;99.90;;;;;;4772991;30;20477;-81
2023/04/19 05:01:23;;;;;;;10.10;4.75;;;6.90;99.90;;;;;;4758217;30;20089;-82
2023/04/19 05:03:50;;;;;;;8.20;4.97;;;7.00;99.90;;;;;;4758772;30;20051;-81
2023/04/19 05:06:16;;;;;;;8.02;4.35;;;6.90;99.90;;;;;;4772900;30;20443;-85
2023/04/19 05:08:42;;;;;;;10.53;4.40;;;7.00;99.90;;;;;;4758079;30;20051;-82
2023/04/19 05:11:08;;;;;;;7.20;4.32;;;7.00;99.90;;;;;;4772663;30;20059;-82
2023/04/19 05:13:34;;;;;;;8.17;4.17;;;7.00;99.90;;;;;;4758008;30;20051;-81
2023/04/19 05:16:00;;;;;;;9.87;5.10;;;7.10;99.90;;;;;;4758344;30;20380;-81
2023/04/19 05:18:26;;;;;;;9.43;4.40;;;7.00;99.90;;;;;;4757864;30;20312;-82
2023/04/19 05:20:51;;;;;;;7.90;4.23;;;7.00;99.90;;;;;;4758149;30;20086;-81
2023/04/19 05:23:17;;;;;;;8.33;4.30;;;7.10;99.90;;;;;;4757884;30;20062;-81
2023/04/19 05:25:43;;;;;;;6.97;4.10;;;7.10;99.90;;;;;;4787815;30;20108;-82
2023/04/19 05:28:08;;;;;;;6.83;4.23;;;7.10;99.90;;;;;;4772540;30;20063;-81
2023/04/19 05:30:34;;;;;;;15.57;5.00;;;7.10;99.90;;;;;;4772859;30;20051;-81
2023/04/19 05:33:00;;;;;;;11.20;4.37;;;7.10;99.90;;;;;;4772300;30;20498;-81
2023/04/19 05:35:26;;;;;;;7.73;4.33;;;7.20;99.90;;;;;;4757893;30;20066;-82
2023/04/19 05:37:51;;;;;;;13.13;4.37;;;7.30;99.90;;;;;;4757578;30;20480;-82
2023/04/19 05:40:18;;;;;;;6.90;3.63;;;7.20;99.90;;;;;;4776309;30;20061;-82
2023/04/19 05:42:44;;;;;;;7.65;4.00;;;7.30;99.90;;;;;;4778660;30;20055;-82
2023/04/19 05:45:10;;;;;;;9.93;4.20;;;7.40;99.90;;;;;;4778612;30;20055;-82
2023/04/19 05:47:36;;;;;;;8.93;4.60;;;7.40;99.90;;;;;;4778346;30;20054;-82
2023/04/19 05:50:02;;;;;;;7.07;3.73;;;7.40;99.90;;;;;;4778205;30;20043;-82
2023/04/19 05:52:28;;;;;;;9.07;3.85;;;7.50;99.90;;;;;;4763466;30;20044;-82
2023/04/19 05:54:54;;;;;;;9.50;4.00;;;7.50;99.90;;;;;;4778366;30;20047;-82
2023/04/19 05:57:20;;;;;;;9.33;3.90;;;7.60;99.90;;;;;;4748725;30;20055;-82
2023/04/19 05:59:46;;;;;;;7.87;3.97;;;7.80;99.90;;;;;;4778098;30;20062;-82
2023/04/19 06:02:11;;;;;;;8.02;3.58;;;8.30;99.90;;;;;;4794087;30;20078;-82
2023/04/19 06:04:37;;;;;;;7.27;3.40;;;9.60;99.90;;;;;;4794152;30;20124;-82
2023/04/19 06:07:03;;;;;;;6.27;3.53;;;10.90;99.90;;;;;;4794261;30;20137;-82
2023/04/19 06:09:29;;;;;;;7.00;3.17;;;12.20;99.90;;;;;;4748827;30;20130;-83
2023/04/19 06:11:55;;;;;;;7.83;3.13;;;13.10;96.50;;;;;;4778471;30;20083;-83
2023/04/19 06:14:21;;;;;;;7.07;3.53;;;13.70;84.10;;;;;;4792839;30;20057;-83
2023/04/19 06:16:47;;;;;;;6.00;3.40;;;14.40;90.10;;;;;;4762850;30;20372;-83
2023/04/19 06:19:13;;;;;;;5.13;2.60;;;14.50;65.60;;;;;;4777716;30;20280;-82
2023/04/19 06:21:39;;;;;;;6.43;3.33;;;15.00;66.80;;;;;;4777898;30;20047;-83
2023/04/19 06:24:07;;;;;;;7.20;3.00;;;14.80;63.20;;;;;;4778545;30;20054;-83
2023/04/19 06:26:33;;;;;;;10.00;4.20;;;15.10;63.60;;;;;;4778020;30;20051;-83
2023/04/19 06:29:00;;;;;;;6.80;3.10;;;15.50;58.50;;;;;;4777723;30;20297;-82
2023/04/19 06:31:25;;;;;;;5.73;3.10;;;15.80;60.10;;;;;;4763259;30;20094;-84
2023/04/19 06:33:51;;;;;;;6.53;3.03;;;16.30;59.80;;;;;;4763923;30;20691;-83
2023/04/19 06:36:17;;;;;;;6.57;3.17;;;16.50;55.90;;;;;;4778799;30;20089;-83
2023/04/19 06:38:45;;;;;;;6.40;2.83;;;16.40;53.90;;;;;;4777450;30;20063;-83
2023/04/19 06:41:11;;;;;;;7.50;3.20;;;16.70;55.90;;;;;;4777687;30;20535;-83
2023/04/19 06:43:39;;;;;;;7.47;2.97;;;17.10;54.30;;;;;;4763261;30;20293;-83
2023/04/19 06:46:05;;;;;;;8.53;3.43;;;17.20;47.20;;;;;;4777950;30;20324;-83
2023/04/19 06:48:33;;;;;;;5.80;2.90;;;17.30;51.00;;;;;;4793961;30;20641;-83
2023/04/19 06:50:58;;;;;;;6.63;2.60;;;16.60;48.40;;;;;;4777135;30;20762;-83
2023/04/19 06:53:26;;;;;;;5.73;2.53;;;17.00;51.20;;;;;;4774756;30;20054;-83
2023/04/19 06:56:03;;;;;;;4.87;2.97;;;17.20;47.80;;;;;;4790849;30;20057;-82
2023/04/19 06:58:29;;;;;;;5.33;2.67;;;17.10;47.80;;;;;;4791483;30;20062;-84
2023/04/19 07:00:55;;;;;;;5.37;3.07;;;17.30;48.50;;;;;;4790832;30;20051;-83
2023/04/19 07:03:21;;;;;;;5.07;2.50;;;17.70;47.10;;;;;;4760217;30;20137;-82
2023/04/19 07:05:47;;;;;;;8.27;2.80;;;18.10;48.60;;;;;;4759879;30;20078;-83
2023/04/19 07:08:13;;;;;;;5.63;2.80;;;18.40;46.90;;;;;;4790730;30;20051;-83
2023/04/19 07:10:39;;;;;;;6.47;3.00;;;18.60;44.50;;;;;;4790788;30;20057;-83
2023/04/19 07:13:04;;;;;;;7.00;2.70;;;18.40;46.00;;;;;;4790658;30;20098;-83
2023/04/19 07:15:30;;;;;;;4.63;2.63;;;18.00;45.30;;;;;;4791362;30;20055;-84
2023/04/19 07:17:56;;;;;;;6.40;2.50;;;18.30;45.80;;;;;;4774553;30;20138;-83
2023/04/19 07:20:22;;;;;;;6.37;2.63;;;18.80;46.10;;;;;;4774668;30;20051;-83
2023/04/19 07:22:48;;;;;;;5.17;2.90;;;19.20;46.50;;;;;;4774588;30;20143;-83
2023/04/19 07:25:13;;;;;;;8.47;2.83;;;19.30;44.70;;;;;;4790452;30;20058;-82
2023/04/19 07:27:39;;;;;;;6.70;2.60;;;18.70;43.60;;;;;;4775305;30;20055;-83
2023/04/19 07:30:06;;;;;;;4.17;2.13;;;18.40;42.70;;;;;;4774690;30;20043;-83
2023/04/19 07:32:32;;;;;;;6.40;2.70;;;18.80;42.40;;;;;;4774037;30;20058;-87
2023/04/19 07:34:57;;;;;;;4.17;2.10;;;18.50;42.50;;;;;;4774346;30;20059;-82
2023/04/19 07:37:23;;;;;;;4.20;2.10;;;18.20;42.00;;;;;;4790720;30;20388;-82
2023/04/19 07:39:49;;;;;;;5.43;2.63;;;18.10;43.00;;;;;;4774107;30;20059;-82
2023/04/19 07:42:14;;;;;;;5.20;2.53;;;18.20;43.80;;;;;;4759498;30;20055;-82
2023/04/19 07:44:40;;;;;;;5.13;2.10;;;18.50;43.80;;;;;;4760202;30;20091;-83
2023/04/19 07:47:06;;;;;;;3.97;2.10;;;18.40;42.70;;;;;;4774058;30;20463;-82
2023/04/19 07:49:33;;;;;;;3.97;1.97;;;18.60;42.70;;;;;;4774497;30;20054;-82
2023/04/19 07:52:05;;;;;;;4.63;2.07;;;18.30;42.30;;;;;;4790029;30;20134;-82
2023/04/19 07:54:31;;;;;;;3.00;1.80;;;17.90;43.60;;;;;;4745658;30;20145;-82
2023/04/19 07:56:57;;;;;;;5.13;2.40;;;17.30;43.50;;;;;;4759374;30;20055;-82
2023/04/19 07:59:23;;;;;;;3.83;2.00;;;16.10;44.00;;;;;;4788695;30;20128;-82
2023/04/19 08:01:49;;;;;;;4.47;2.07;;;15.50;45.80;;;;;;4788599;30;20508;-82
2023/04/19 08:04:16;;;;;;;5.40;2.17;;;14.80;45.80;;;;;;4773366;30;20051;-82
2023/04/19 08:06:42;;;;;;;4.37;2.33;;;14.30;46.90;;;;;;4790107;30;20047;-82
2023/04/19 08:09:08;;;;;;;8.00;2.10;;;13.90;47.80;;;;;;4774542;30;20138;-81
2023/04/19 08:11:33;;;;;;;5.73;2.47;;;13.70;47.90;;;;;;4788976;30;20350;-82
2023/04/19 08:13:59;;;;;;;4.80;2.30;;;13.60;48.70;;;;;;4758907;30;20055;-81
2023/04/19 08:16:26;;;;;;;4.73;2.00;;;13.50;49.50;;;;;;4773608;30;20055;-81
2023/04/19 08:18:52;;;;;;;4.47;2.40;;;13.40;49.20;;;;;;4790232;30;20469;-82
2023/04/19 08:21:18;;;;;;;5.63;2.53;;;13.30;49.70;;;;;;4774289;30;20380;-81
2023/04/19 08:23:44;;;;;;;4.70;2.20;;;13.20;49.40;;;;;;4773523;30;20114;-81
2023/04/19 08:26:10;;;;;;;4.40;2.30;;;13.10;49.20;;;;;;4789472;30;20101;-81
2023/04/19 08:28:35;;;;;;;4.10;2.10;;;13.00;49.70;;;;;;4773711;30;20397;-80
2023/04/19 08:31:05;;;;;;;4.50;2.00;;;12.90;50.40;;;;;;4788076;30;20051;-81
2023/04/19 08:33:31;;;;;;;4.77;2.20;;;12.80;50.60;;;;;;4773053;30;20055;-81
2023/04/19 08:35:56;;;;;;;4.70;2.10;;;12.80;50.50;;;;;;4759242;30;20782;-82
2023/04/19 08:38:22;;;;;;;3.97;2.13;;;12.90;50.60;;;;;;4772852;30;20095;-81
2023/04/19 08:40:52;;;;;;;6.50;2.90;;;12.90;51.20;;;;;;4773235;30;20071;-81
2023/04/19 08:43:18;;;;;;;4.60;2.07;;;12.70;49.10;;;;;;4759297;30;20117;-80
2023/04/19 08:45:48;;;;;;;5.47;2.17;;;12.70;50.10;;;;;;4789133;30;20376;-81
2023/04/19 08:48:16;;;;;;;4.53;2.60;;;12.60;50.80;;;;;;4773822;30;20295;-80
2023/04/19 08:50:42;;;;;;;4.83;2.47;;;12.60;51.00;;;;;;4773200;30;20725;-82
2023/04/19 08:53:09;;;;;;;7.47;2.43;;;12.70;52.20;;;;;;4789543;30;20305;-81
2023/04/19 08:55:40;;;;;;;4.13;1.80;;;12.70;51.60;;;;;;4789020;30;20285;-81
2023/04/19 08:58:06;;;;;;;4.20;2.10;;;12.70;51.20;;;;;;4772958;30;20380;-81
2023/04/19 09:00:33;;;;;;;3.87;1.97;;;12.80;50.40;;;;;;4773602;30;20379;-81
2023/04/19 09:02:59;;;;;;;4.40;2.00;;;12.70;50.50;;;;;;4743598;30;20112;-82
2023/04/19 09:05:24;;;;;;;3.73;2.07;;;12.60;50.70;;;;;;4772910;30;20305;-81
2023/04/19 09:07:50;;;;;;;5.10;2.40;;;12.70;50.70;;;;;;4772695;30;20136;-81
2023/04/19 09:10:19;;;;;;;4.63;2.03;;;12.70;51.40;;;;;;4758127;30;20090;-81
2023/04/19 09:13:01;;;;;;;5.27;2.00;;;12.70;52.10;;;;;;4772262;30;20805;-82
2023/04/19 09:15:40;;;;;;;3.87;1.80;;;12.60;51.80;;;;;;4771885;30;20329;-81
2023/04/19 09:18:11;;;;;;;4.37;1.90;;;12.60;50.10;;;;;;4772772;30;20303;-81
2023/04/19 09:20:42;;;;;;;3.27;1.50;;;12.60;51.80;;;;;;4773082;30;20324;-81
2023/04/19 09:23:11;;;;;;;3.50;1.57;;;12.60;49.40;;;;;;4788571;30;20384;-81
2023/04/19 09:25:38;;;;;;;3.53;2.00;;;12.70;50.00;;;;;;4772636;30;20358;-82
2023/04/19 09:28:13;;;;;;;4.43;1.70;;;12.60;50.90;;;;;;4772618;30;20359;-82
2023/04/19 09:30:40;;;;;;;4.77;1.50;;;12.60;51.20;;;;;;4788531;30;20377;-82
2023/04/19 09:33:09;;;;;;;3.83;1.50;;;12.60;51.20;;;;;;4772277;30;20317;-81
2023/04/19 09:35:49;;;;;;;5.33;1.50;;;12.70;48.40;;;;;;4772546;30;20297;-81
2023/04/19 09:38:15;;;;;;;4.50;1.60;;;12.70;49.60;;;;;;4788416;30;20386;-81
2023/04/19 09:40:41;;;;;;;5.83;1.80;;;12.70;49.60;;;;;;4788316;30;20297;-82
2023/04/19 09:43:07;;;;;;;2.93;1.37;;;12.70;50.60;;;;;;4788390;30;20329;-81
2023/04/19 09:45:42;;;;;;;5.13;1.70;;;12.70;49.90;;;;;;4787234;30;20300;-81
2023/04/19 09:48:08;;;;;;;4.93;1.65;;;12.70;50.20;;;;;;4772500;30;20332;-82
2023/04/19 09:50:36;;;;;;;4.63;1.80;;;12.70;50.60;;;;;;4772527;30;20056;-81
2023/04/19 09:53:02;;;;;;;4.57;1.70;;;12.70;50.60;;;;;;4772267;30;20313;-82
2023/04/19 09:55:29;;;;;;;6.20;2.07;;;12.80;51.70;;;;;;4772668;30;20782;-82
2023/04/19 09:57:55;;;;;;;3.57;1.70;;;12.90;52.50;;;;;;4772439;30;20293;-82
2023/04/19 10:00:21;;;;;;;3.60;1.70;;;13.00;52.80;;;;;;4788538;30;20293;-81
2023/04/19 10:02:56;;;;;;;4.33;1.60;;;13.10;51.80;;;;;;4757254;30;20059;-82
2023/04/19 10:05:24;;;;;;;5.43;1.85;;;13.00;51.10;;;;;;4773148;30;20631;-82
2023/04/19 10:07:51;;;;;;;5.87;1.73;;;13.00;51.90;;;;;;4772319;30;20079;-82
2023/04/19 10:10:17;;;;;;;5.13;1.93;;;13.10;53.10;;;;;;4772300;30;20297;-81
2023/04/19 10:12:50;;;;;;;3.93;1.80;;;13.20;51.70;;;;;;4772122;30;20309;-82
2023/04/19 10:15:16;;;;;;;5.10;1.67;;;13.10;51.20;;;;;;4773018;30;20366;-81
2023/04/19 10:17:43;;;;;;;4.57;1.77;;;13.10;51.20;;;;;;4788100;30;20293;-81
2023/04/19 10:20:19;;;;;;;4.60;1.53;;;13.00;52.70;;;;;;4772814;30;20630;-81
2023/04/19 10:22:45;;;;;;;3.77;1.60;;;13.10;52.90;;;;;;4788062;30;20427;-81
2023/04/19 10:25:13;;;;;;;5.30;1.73;;;13.20;51.70;;;;;;4772395;30;20399;-82
2023/04/19 10:27:44;;;;;;;10.20;1.60;;;13.30;52.40;;;;;;4775223;30;20054;-81
2023/04/19 10:30:20;;;;;;;4.67;1.60;;;13.30;51.80;;;;;;4791503;30;20337;-82
2023/04/19 10:32:52;;;;;;;7.07;1.50;;;13.30;50.90;;;;;;4761051;30;20775;-82
2023/04/19 10:35:20;;;;;;;3.80;1.63;;;13.30;52.30;;;;;;4776181;30;20288;-81
2023/04/19 10:38:07;;;;;;;3.63;1.43;;;13.40;51.70;;;;;;4790962;30;20346;-82
2023/04/19 10:40:52;;;;;;;2.97;1.30;;;13.40;50.90;;;;;;4791188;30;20301;-81
2023/04/19 10:43:19;;;;;;;6.25;1.27;;;13.50;50.70;;;;;;4775315;30;20388;-81
2023/04/19 10:45:45;;;;;;;4.43;1.53;;;13.50;51.40;;;;;;4791153;30;20405;-82
2023/04/19 10:48:36;;;;;;;5.60;1.97;;;13.50;50.00;;;;;;4760445;30;20301;-81
2023/04/19 10:51:17;;;;;;;4.07;1.60;;;13.60;49.70;;;;;;4791059;30;20322;-82
2023/04/19 10:53:49;;;;;;;4.10;1.37;;;13.60;50.70;;;;;;4775183;30;20774;-81
2023/04/19 10:56:20;;;;;;;3.40;1.07;;;13.60;48.30;;;;;;4790931;30;20293;-81
2023/04/19 10:59:06;;;;;;;2.70;1.30;;;13.60;47.90;;;;;;4760306;30;20300;-81
2023/04/19 11:01:33;;;;;;;3.70;1.77;;;13.50;48.10;;;;;;4775064;30;20794;-81
2023/04/19 11:03:59;;;;;;;3.37;2.07;;;13.50;51.00;;;;;;4774991;30;20301;-79
2023/04/19 11:06:26;;;;;;;3.90;1.50;;;13.60;50.00;;;;;;4791074;30;20288;-81
2023/04/19 11:08:53;;;;;;;3.33;1.47;;;13.70;50.70;;;;;;4790767;30;20051;-81
2023/04/19 11:11:20;;;;;;;7.67;1.97;;;13.60;50.90;;;;;;4774778;30;20789;-81
2023/04/19 11:13:49;;;;;;;4.10;1.37;;;13.60;52.00;;;;;;4791419;30;20324;-81
2023/04/19 11:16:15;;;;;;;4.27;1.50;;;13.60;51.60;;;;;;4774801;30;20343;-81
2023/04/19 11:18:40;;;;;;;3.13;1.23;;;13.60;51.50;;;;;;4775474;30;20359;-81
2023/04/19 11:21:11;;;;;;;7.90;1.37;;;13.50;50.80;;;;;;4775157;30;20047;-81
2023/04/19 11:23:37;;;;;;;6.83;1.30;;;13.60;49.80;;;;;;4760278;30;20059;-81
2023/04/19 11:26:02;;;;;;;4.10;1.33;;;13.60;49.80;;;;;;4774942;30;20292;-81
2023/04/19 11:28:28;;;;;;;5.13;1.20;;;13.60;50.30;;;;;;4775329;30;20047;-81
2023/04/19 11:30:55;;;;;;;4.03;1.30;;;13.60;50.00;;;;;;4790372;30;20062;-81
2023/04/19 11:33:23;;;;;;;4.17;1.60;;;13.60;49.90;;;;;;4774165;30;20492;-81
2023/04/19 11:35:50;;;;;;;6.33;1.70;;;13.50;50.10;;;;;;4790264;30;20300;-81
2023/04/19 11:38:15;;;;;;;6.37;1.60;;;13.60;51.30;;;;;;4773406;30;20332;-81
2023/04/19 11:40:41;;;;;;;7.23;1.63;;;13.50;51.40;;;;;;4774006;30;20764;-79
2023/04/19 11:43:07;;;;;;;4.83;1.60;;;13.50;51.30;;;;;;4759597;30;20051;-78
2023/04/19 11:45:36;;;;;;;3.20;1.40;;;13.50;52.40;;;;;;4790334;30;20055;-79
2023/04/19 11:48:04;;;;;;;5.70;1.50;;;13.60;51.60;;;;;;4759729;30;20074;-80
2023/04/19 11:50:38;;;;;;;7.63;1.80;;;13.60;51.90;;;;;;4774113;30;20412;-79
2023/04/19 11:53:23;;;;;;;2.35;1.30;;;13.60;52.20;;;;;;4774677;30;20693;-80
2023/04/19 11:55:54;;;;;;;5.45;1.80;;;13.60;52.10;;;;;;4774059;30;20059;-80
2023/04/19 11:58:49;;;;;;;5.77;1.80;;;13.60;52.40;;;;;;4774206;30;20055;-80
2023/04/19 12:01:19;;;;;;;5.37;2.50;;;13.60;52.60;;;;;;4789993;30;20844;-79
2023/04/19 12:03:48;;;;;;;4.57;1.70;;;13.60;53.50;;;;;;4773684;30;20299;-79
2023/04/19 12:06:22;;;;;;;4.40;1.60;;;13.70;52.30;;;;;;4758840;30;20411;-80
2023/04/19 12:08:50;;;;;;;5.47;1.70;;;13.60;53.60;;;;;;4790484;30;20320;-80
2023/04/19 12:11:20;;;;;;;5.13;1.70;;;13.60;53.60;;;;;;4773998;30;20055;-79
2023/04/19 12:13:46;;;;;;;6.57;2.07;;;13.50;54.30;;;;;;4760180;30;20312;-80
2023/04/19 12:16:12;;;;;;;4.53;2.10;;;13.40;54.70;;;;;;4774178;30;20339;-80
2023/04/19 12:18:49;;;;;;;4.43;1.80;;;13.40;55.80;;;;;;4759746;30;20354;-79
2023/04/19 12:21:31;;;;;;;7.77;1.87;;;13.50;56.10;;;;;;4773801;30;20297;-80
2023/04/19 12:23:59;;;;;;;5.67;2.00;;;13.40;56.70;;;;;;4773386;30;20788;-79
2023/04/19 12:26:29;;;;;;;6.00;2.30;;;13.50;57.60;;;;;;4773498;30;20304;-79
2023/04/19 12:28:56;;;;;;;5.27;2.30;;;13.60;56.50;;;;;;4773511;30;20353;-80
2023/04/19 12:31:22;;;;;;;5.20;2.07;;;13.60;56.10;;;;;;4773624;30;20296;-80
2023/04/19 12:33:48;;;;;;;5.73;2.30;;;13.60;56.70;;;;;;4789896;30;20297;-79
2023/04/19 12:36:14;;;;;;;6.40;2.23;;;13.60;56.90;;;;;;4789332;30;20100;-80
2023/04/19 12:38:40;;;;;;;5.47;2.43;;;13.50;57.70;;;;;;4772874;30;20288;-79
2023/04/19 12:41:06;;;;;;;6.30;2.57;;;13.50;59.30;;;;;;4758284;30;20484;-80
2023/04/19 12:43:32;;;;;;;4.80;2.47;;;13.40;58.50;;;;;;4743868;30;20304;-80
2023/04/19 12:45:58;;;;;;;4.70;2.13;;;13.40;57.90;;;;;;4773246;30;20050;-80
2023/04/19 12:48:24;;;;;;;5.47;2.57;;;13.40;58.30;;;;;;4758443;29;20055;-80